»·PEaware :: N715HR L88-KSBP

N715HR :: L88-KSBP

FLIGHT INFORMATION

Flight Status: Arrived
Operator: Privately registered:
United States
More flights under this callsign
Pilot: Rob C. (17694)
Aircraft: CESSNA 172 SKYHAWK
(C172)
More flights by this aircraft type
Origin: L88 New Cuyama
United States
Destination: KSBP San Luis Co Regl
United States
More flights between these airports :: More routes between these airports
Route: HEADING 285 TO THE 260 RADIAL THEN DIRECT KSBP
File this flight plan on PilotEdge
Remarks: CAT2
Altitude:
(Current/Filed)
6,500ft
Speed:
(Current/Filed)
115kts
Departed: 05-Jan-18 05:05 PM
Arrived: 05-Jan-18 05:48 PM
Distance/Time
Traveled:
50nm/0:43
Distance/Time
To Go:
Arrived

Flight Plot

Page will automatically refresh every two minutes.

Flight plan parsing failed; only flown route is shown


Map Options




Map Legend


Flown Route
Filed Route
Departure Airport
Arrival Airport
Navaid (VOR, NDB)
Fix

Horizontal Profiles

Position Reports

Time Latitude Longitude Heading Altitude Ground
Speed
05-Jan-18 17:03 34.942962 -119.690792 112 2207ft 0kts
05-Jan-18 17:04 34.942855 -119.690286 204 2207ft 0kts
05-Jan-18 17:05 34.942855 -119.690286 204 2207ft 0kts
05-Jan-18 17:06 34.942855 -119.690286 204 2207ft 0kts
05-Jan-18 17:07 34.942855 -119.690286 204 2207ft 0kts
05-Jan-18 17:08 34.942810 -119.690381 255 2207ft 2kts
05-Jan-18 17:09 34.941662 -119.689726 116 2207ft 18kts
05-Jan-18 17:10 34.938361 -119.681785 116 2207ft 26kts
05-Jan-18 17:11 34.938669 -119.682521 292 2207ft 57kts
05-Jan-18 17:12 34.946818 -119.705296 286 3028ft 68kts
05-Jan-18 17:13 34.958759 -119.733931 297 3474ft 105kts
05-Jan-18 17:14 34.972259 -119.764915 297 4140ft 100kts
05-Jan-18 17:15 34.985067 -119.794260 297 4836ft 96kts
05-Jan-18 17:16 34.997467 -119.822606 297 5533ft 93kts
05-Jan-18 17:17 35.009392 -119.849819 297 6228ft 89kts
05-Jan-18 17:18 35.022175 -119.878816 298 6511ft 106kts
05-Jan-18 17:19 35.036337 -119.910655 298 6511ft 107kts
05-Jan-18 17:20 35.050499 -119.942400 298 6510ft 107kts
05-Jan-18 17:21 35.064750 -119.974263 298 6510ft 107kts
05-Jan-18 17:22 35.078971 -120.005948 298 6510ft 107kts
05-Jan-18 17:23 35.093282 -120.037777 298 6510ft 107kts
05-Jan-18 17:24 35.107653 -120.069646 298 6509ft 107kts
05-Jan-18 17:25 35.122510 -120.100936 304 6513ft 107kts
05-Jan-18 17:26 35.138011 -120.130399 272 6511ft 107kts
05-Jan-18 17:27 35.139072 -120.165969 271 6510ft 107kts
05-Jan-18 17:28 35.140128 -120.202278 271 6508ft 107kts
05-Jan-18 17:29 35.141296 -120.240273 272 6139ft 116kts
05-Jan-18 17:30 35.142540 -120.279709 272 5640ft 116kts
05-Jan-18 17:31 35.143849 -120.319189 272 5140ft 116kts
05-Jan-18 17:32 35.145169 -120.358470 272 4642ft 116kts
05-Jan-18 17:33 35.146419 -120.394919 272 4504ft 97kts
05-Jan-18 17:34 35.147535 -120.427265 272 4409ft 98kts
05-Jan-18 17:35 35.148864 -120.464008 272 3923ft 113kts
05-Jan-18 17:36 35.150327 -120.502905 272 3468ft 111kts
05-Jan-18 17:37 35.151611 -120.536815 272 3460ft 93kts
05-Jan-18 17:38 35.152869 -120.569609 272 3206ft 108kts
05-Jan-18 17:39 35.154411 -120.607648 273 2708ft 114kts
05-Jan-18 17:40 35.163558 -120.643807 300 2226ft 112kts
05-Jan-18 17:41 35.177261 -120.673251 299 2218ft 93kts
05-Jan-18 17:42 35.185260 -120.702595 284 2216ft 89kts
05-Jan-18 17:43 35.191503 -120.731927 284 2215ft 88kts
05-Jan-18 17:44 35.197733 -120.761051 284 2214ft 88kts
05-Jan-18 17:45 35.209005 -120.785466 352 2267ft 84kts
05-Jan-18 17:46 35.226796 -120.775659 46 2642ft 63kts
05-Jan-18 17:47 35.222507 -120.773624 105 2847ft 84kts
05-Jan-18 17:48 35.229263 -120.741162 71 2773ft 104kts
05-Jan-18 17:49 35.234036 -120.706636 97 2609ft 99kts
05-Jan-18 17:50 35.237780 -120.672936 92 1641ft 97kts
05-Jan-18 17:51 35.226348 -120.650457 122 994ft 70kts
05-Jan-18 17:52 35.218520 -120.628366 58 707ft 78kts
05-Jan-18 17:53 35.231835 -120.631435 305 331ft 57kts
05-Jan-18 17:54 35.237396 -120.639946 3 215ft 0kts
05-Jan-18 17:55 35.238263 -120.640095 283 215ft 0kts
05-Jan-18 17:56 35.238263 -120.640095 283 215ft 0kts

Navigation Log

Ident Type
Flight plan parsing failed, navigation log unavailable